createdAt,value
2023-02-03T00:00:33.739Z,10.00
2023-02-03T00:03:00.879Z,10.00
2023-02-03T00:05:28.445Z,10.00
2023-02-03T00:07:55.618Z,10.00
2023-02-03T00:10:22.938Z,10.00
2023-02-03T00:12:52.749Z,10.00
2023-02-03T00:15:20.409Z,10.00
2023-02-03T00:17:49.494Z,10.00
2023-02-03T00:20:16.619Z,10.00
2023-02-03T00:22:43.609Z,9.90
2023-02-03T00:25:12.003Z,9.90
2023-02-03T00:27:39.042Z,9.90
2023-02-03T00:30:07.084Z,9.90
2023-02-03T00:32:34.153Z,9.90
2023-02-03T00:35:01.312Z,9.90
2023-02-03T00:37:28.379Z,9.90
2023-02-03T00:39:55.317Z,9.90
2023-02-03T00:42:22.392Z,10.00
2023-02-03T00:44:49.481Z,9.90
2023-02-03T00:47:16.484Z,10.00
2023-02-03T00:49:43.566Z,10.00
2023-02-03T00:52:13.139Z,10.00
2023-02-03T00:54:40.080Z,10.00
2023-02-03T00:57:07.131Z,10.00
2023-02-03T00:59:34.133Z,10.00
2023-02-03T01:02:01.240Z,10.00
2023-02-03T01:04:28.336Z,10.00
2023-02-03T01:06:57.586Z,10.00
2023-02-03T01:09:24.890Z,10.00
2023-02-03T01:11:54.543Z,10.00
2023-02-03T01:14:21.645Z,10.00
2023-02-03T01:16:48.739Z,10.00
2023-02-03T01:19:17.553Z,10.10
2023-02-03T01:21:45.101Z,10.00
2023-02-03T01:24:12.520Z,10.00
2023-02-03T01:26:39.582Z,10.10
2023-02-03T01:29:06.645Z,10.00
2023-02-03T01:31:37.237Z,10.00
2023-02-03T01:34:08.816Z,10.00
2023-02-03T01:36:36.094Z,10.00
2023-02-03T01:39:04.796Z,10.00
2023-02-03T01:41:39.122Z,10.00
2023-02-03T01:44:55.829Z,9.90
2023-02-03T01:47:31.737Z,10.00
2023-02-03T01:50:13.852Z,10.00
2023-02-03T01:52:47.612Z,9.90
2023-02-03T01:55:19.554Z,9.90
2023-02-03T01:57:52.211Z,9.90
2023-02-03T02:00:19.648Z,9.90
2023-02-03T02:02:49.018Z,9.90
2023-02-03T02:05:41.788Z,9.80
2023-02-03T02:08:11.195Z,9.90
2023-02-03T02:10:38.658Z,9.80
2023-02-03T02:13:06.653Z,9.80
2023-02-03T02:16:04.602Z,9.80
2023-02-03T02:18:37.856Z,9.80
2023-02-03T02:21:23.560Z,9.80
2023-02-03T02:23:52.787Z,9.80
2023-02-03T02:26:22.868Z,9.80
2023-02-03T02:29:15.467Z,9.80
2023-02-03T02:31:59.863Z,9.80
2023-02-03T02:34:50.968Z,9.80
2023-02-03T02:38:01.115Z,9.80
2023-02-03T02:40:39.812Z,9.80
2023-02-03T02:43:12.033Z,9.80
2023-02-03T02:45:59.676Z,9.80
2023-02-03T02:48:38.186Z,9.80
2023-02-03T02:51:09.752Z,9.80
2023-02-03T02:56:34.617Z,9.80
2023-02-03T02:59:06.479Z,9.80
2023-02-03T03:01:34.147Z,9.80
2023-02-03T03:04:06.471Z,9.80
2023-02-03T03:07:01.733Z,9.80
2023-02-03T03:09:51.849Z,9.80
2023-02-03T03:12:32.311Z,9.80
2023-02-03T03:15:03.469Z,9.70
2023-02-03T03:18:03.623Z,9.70
2023-02-03T03:20:34.062Z,9.70
2023-02-03T03:23:06.286Z,9.80
2023-02-03T03:25:49.218Z,9.80
2023-02-03T03:28:26.730Z,9.80
2023-02-03T03:30:54.155Z,9.80
2023-02-03T03:33:22.299Z,9.80
2023-02-03T03:35:49.215Z,9.70
2023-02-03T03:38:32.066Z,9.80
2023-02-03T03:41:11.149Z,9.80
2023-02-03T03:43:42.395Z,9.80
2023-02-03T03:46:31.999Z,9.80
2023-02-03T03:49:04.964Z,9.70
2023-02-03T03:51:32.004Z,9.70
2023-02-03T03:54:11.013Z,9.70
2023-02-03T03:56:46.399Z,9.80
2023-02-03T03:59:15.658Z,9.70
2023-02-03T04:01:43.271Z,9.80
2023-02-03T04:04:12.378Z,9.80
2023-02-03T04:06:40.003Z,9.70
2023-02-03T04:09:07.508Z,9.80
2023-02-03T04:11:53.185Z,9.70
2023-02-03T04:14:20.312Z,9.80
2023-02-03T04:16:47.359Z,9.70
2023-02-03T04:19:14.387Z,9.80
2023-02-03T04:21:43.977Z,9.70
2023-02-03T04:24:12.161Z,9.80
2023-02-03T04:26:39.713Z,9.70
2023-02-03T04:29:07.155Z,9.80
2023-02-03T04:31:34.599Z,9.70
2023-02-03T04:34:01.782Z,9.70
2023-02-03T04:36:28.735Z,9.70
2023-02-03T04:38:55.697Z,9.70
2023-02-03T04:41:22.730Z,9.70
2023-02-03T04:43:49.900Z,9.80
2023-02-03T04:46:18.242Z,9.70
2023-02-03T04:48:45.523Z,9.70
2023-02-03T04:51:12.537Z,9.80
2023-02-03T04:53:39.593Z,9.80
2023-02-03T04:56:06.965Z,9.80
2023-02-03T04:58:34.004Z,9.80
2023-02-03T05:01:08.437Z,9.80
2023-02-03T05:03:36.104Z,9.80
2023-02-03T05:06:03.440Z,9.80
2023-02-03T05:08:30.767Z,9.80
2023-02-03T05:11:01.365Z,9.80
2023-02-03T05:13:29.286Z,9.80
2023-02-03T05:15:56.257Z,9.80
2023-02-03T05:18:23.354Z,9.80
2023-02-03T05:20:50.320Z,9.80
2023-02-03T05:23:17.394Z,9.80
2023-02-03T05:25:45.045Z,9.80
2023-02-03T05:28:12.249Z,9.80
2023-02-03T05:30:39.374Z,9.70
2023-02-03T05:33:06.443Z,9.80
2023-02-03T05:35:33.699Z,9.80
2023-02-03T05:38:01.285Z,9.80
2023-02-03T05:40:47.280Z,9.80
2023-02-03T05:43:14.375Z,9.80
2023-02-03T05:45:41.634Z,9.80
2023-02-03T05:48:08.779Z,9.80
2023-02-03T05:50:38.577Z,9.80
2023-02-03T05:53:09.140Z,9.80
2023-02-03T05:55:37.844Z,9.90
2023-02-03T05:58:05.266Z,9.90
2023-02-03T06:00:32.478Z,9.80
2023-02-03T06:03:02.441Z,9.90
2023-02-03T06:05:30.942Z,9.90
2023-02-03T06:07:58.498Z,9.90
2023-02-03T06:10:26.571Z,9.90
2023-02-03T06:12:53.984Z,9.90
2023-02-03T06:15:21.143Z,9.90
2023-02-03T06:17:49.427Z,9.80
2023-02-03T06:20:19.222Z,9.90
2023-02-03T06:22:46.258Z,9.90
2023-02-03T06:25:14.461Z,9.90
2023-02-03T06:27:42.285Z,9.90
2023-02-03T06:30:11.381Z,9.90
2023-02-03T06:32:38.495Z,9.90
2023-02-03T06:35:05.993Z,9.80
2023-02-03T06:37:32.960Z,9.80
2023-02-03T06:40:00.059Z,9.80
2023-02-03T06:42:27.295Z,9.80
2023-02-03T06:44:55.100Z,9.80
2023-02-03T06:47:22.501Z,9.80
2023-02-03T06:49:49.705Z,9.80
2023-02-03T06:52:16.713Z,9.80
2023-02-03T06:54:51.322Z,9.80
2023-02-03T06:57:18.361Z,9.80
2023-02-03T06:59:45.351Z,9.80
2023-02-03T07:02:12.496Z,9.80
2023-02-03T07:04:39.582Z,9.80
2023-02-03T07:07:06.668Z,9.70
2023-02-03T07:09:34.094Z,9.70
2023-02-03T07:12:01.084Z,9.70
2023-02-03T07:14:27.998Z,9.70
2023-02-03T07:16:55.124Z,9.70
2023-02-03T07:19:22.175Z,9.70
2023-02-03T07:21:49.227Z,9.70
2023-02-03T07:24:16.254Z,9.70
2023-02-03T07:26:43.246Z,9.70
2023-02-03T07:29:10.375Z,9.70
2023-02-03T07:31:38.510Z,9.70
2023-02-03T07:34:06.462Z,9.70
2023-02-03T07:36:33.853Z,9.70
2023-02-03T07:39:00.835Z,9.80
2023-02-03T07:41:27.869Z,9.70
2023-02-03T07:43:57.485Z,9.80
2023-02-03T07:46:24.870Z,9.80
2023-02-03T07:48:51.964Z,9.80
2023-02-03T07:51:21.329Z,9.80
2023-02-03T07:53:48.307Z,9.80
2023-02-03T07:56:15.403Z,9.80
2023-02-03T07:58:42.428Z,9.80
2023-02-03T08:01:15.736Z,9.80
2023-02-03T08:03:43.548Z,9.80
2023-02-03T08:06:10.668Z,9.90
2023-02-03T08:08:37.782Z,9.80
2023-02-03T08:11:05.050Z,9.90
2023-02-03T08:13:32.051Z,9.80
2023-02-03T08:15:59.193Z,9.90
2023-02-03T08:18:26.617Z,9.80
2023-02-03T08:20:53.643Z,9.80
2023-02-03T08:23:20.848Z,9.90
2023-02-03T08:25:52.264Z,9.90
2023-02-03T08:28:19.603Z,9.80
2023-02-03T08:30:46.993Z,9.80
2023-02-03T08:33:13.985Z,9.90
2023-02-03T08:35:41.131Z,9.90
2023-02-03T08:38:08.169Z,9.80
2023-02-03T08:40:35.144Z,9.90
2023-02-03T08:43:02.206Z,9.80
2023-02-03T08:45:29.222Z,9.90
2023-02-03T08:47:56.978Z,9.90
2023-02-03T08:50:24.040Z,9.90
2023-02-03T08:52:51.638Z,9.90
2023-02-03T08:55:22.695Z,10.00
2023-02-03T08:57:49.681Z,10.00
2023-02-03T09:00:17.098Z,10.00
2023-02-03T09:02:44.165Z,10.00
2023-02-03T09:05:11.243Z,10.00
2023-02-03T09:07:38.291Z,10.10
2023-02-03T09:10:05.498Z,10.10
2023-02-03T09:12:32.657Z,10.10
2023-02-03T09:14:59.676Z,10.10
2023-02-03T09:17:28.047Z,10.10
2023-02-03T09:19:55.132Z,10.10
2023-02-03T09:22:22.136Z,10.10
2023-02-03T09:24:51.387Z,10.20
2023-02-03T09:27:21.141Z,10.20
2023-02-03T09:29:48.123Z,10.20
2023-02-03T09:32:15.748Z,10.20
2023-02-03T09:34:43.204Z,10.30
2023-02-03T09:37:10.266Z,10.30
2023-02-03T09:39:37.545Z,10.30
2023-02-03T09:42:26.061Z,10.30
2023-02-03T09:45:01.981Z,10.40
2023-02-03T09:47:34.650Z,10.40
2023-02-03T09:50:27.538Z,10.40
2023-02-03T09:52:55.710Z,10.40
2023-02-03T09:55:41.504Z,10.40
2023-02-03T09:58:14.387Z,10.50
2023-02-03T10:00:49.816Z,10.40
2023-02-03T10:03:46.200Z,10.50
2023-02-03T10:06:36.953Z,10.50
2023-02-03T10:09:28.259Z,10.50
2023-02-03T10:12:14.191Z,10.50
2023-02-03T10:14:41.127Z,10.50
2023-02-03T10:17:23.547Z,10.60
2023-02-03T10:20:06.126Z,10.60
2023-02-03T10:22:43.477Z,10.60
2023-02-03T10:25:25.971Z,10.60
2023-02-03T10:27:58.952Z,10.60
2023-02-03T10:30:29.483Z,10.60
2023-02-03T10:33:09.031Z,10.60
2023-02-03T10:36:00.166Z,10.70
2023-02-03T10:38:30.205Z,10.70
2023-02-03T10:40:57.527Z,10.60
2023-02-03T10:43:43.066Z,10.70
2023-02-03T10:46:10.064Z,10.70
2023-02-03T10:48:37.352Z,10.70
2023-02-03T10:51:04.897Z,10.70
2023-02-03T10:53:36.556Z,10.70
2023-02-03T10:56:18.257Z,10.70
2023-02-03T10:58:51.168Z,10.70
2023-02-03T11:01:21.465Z,10.70
2023-02-03T11:03:57.978Z,10.80
2023-02-03T11:06:25.149Z,10.90
2023-02-03T11:08:53.008Z,11.00
2023-02-03T11:11:32.649Z,11.10
2023-02-03T11:14:02.702Z,11.20
2023-02-03T11:16:34.418Z,11.20
2023-02-03T11:19:10.976Z,11.30
2023-02-03T11:21:38.563Z,11.30
2023-02-03T11:24:21.896Z,11.30
2023-02-03T11:26:56.896Z,11.40
2023-02-03T11:29:32.257Z,11.40
2023-02-03T11:32:03.493Z,11.40
2023-02-03T11:34:30.552Z,11.40
2023-02-03T11:36:57.654Z,11.40
2023-02-03T11:39:28.785Z,11.40
2023-02-03T11:41:56.344Z,11.40
2023-02-03T11:44:33.716Z,11.40
2023-02-03T11:47:09.586Z,11.40
2023-02-03T11:50:14.301Z,11.40
2023-02-03T11:53:00.012Z,11.50
2023-02-03T11:55:45.457Z,11.50
2023-02-03T11:58:45.943Z,11.60
2023-02-03T12:01:40.400Z,11.60
2023-02-03T12:04:18.488Z,11.70
2023-02-03T12:07:09.906Z,11.70
2023-02-03T12:09:51.141Z,11.80
2023-02-03T12:12:40.964Z,11.80
2023-02-03T12:15:21.937Z,11.90
2023-02-03T12:18:07.067Z,12.00
2023-02-03T12:20:58.571Z,12.10
2023-02-03T12:23:38.691Z,12.10
2023-02-03T12:26:26.689Z,12.20
2023-02-03T12:29:02.574Z,12.20
2023-02-03T12:31:56.021Z,12.30
2023-02-03T12:34:52.605Z,12.40
2023-02-03T12:37:56.746Z,12.40
2023-02-03T12:40:31.261Z,12.40
2023-02-03T12:43:17.829Z,12.50
2023-02-03T12:45:53.136Z,12.50
2023-02-03T12:48:24.510Z,12.50
2023-02-03T12:50:56.734Z,12.50
2023-02-03T12:53:39.961Z,12.50
2023-02-03T12:56:14.715Z,12.60
2023-02-03T12:58:49.485Z,12.60
2023-02-03T13:01:24.245Z,12.70
2023-02-03T13:04:23.590Z,12.70
2023-02-03T13:07:15.648Z,12.70
2023-02-03T13:09:50.283Z,12.70
2023-02-03T13:12:27.012Z,12.70
2023-02-03T13:15:12.902Z,12.60
2023-02-03T13:17:43.961Z,12.70
2023-02-03T13:20:26.712Z,12.60
2023-02-03T13:22:53.891Z,12.60
2023-02-03T13:25:39.337Z,12.60
2023-02-03T13:28:43.782Z,12.60
2023-02-03T13:31:24.606Z,12.50
2023-02-03T13:34:07.812Z,12.50
2023-02-03T13:36:46.481Z,12.50
2023-02-03T13:39:58.748Z,12.50
2023-02-03T13:42:32.271Z,12.40
2023-02-03T13:45:09.086Z,12.50
2023-02-03T13:47:36.447Z,12.50
2023-02-03T13:50:16.605Z,12.50
2023-02-03T13:52:57.423Z,12.50
2023-02-03T13:55:29.756Z,12.50
2023-02-03T13:57:57.749Z,12.50
2023-02-03T14:00:43.246Z,12.50
2023-02-03T14:03:40.099Z,12.50
2023-02-03T14:06:30.910Z,12.50
2023-02-03T14:09:01.017Z,12.50
2023-02-03T14:11:37.866Z,12.50
2023-02-03T14:14:07.959Z,12.50
2023-02-03T14:16:36.318Z,12.50
2023-02-03T14:19:22.467Z,12.50
2023-02-03T14:22:02.730Z,12.40
2023-02-03T14:24:40.613Z,12.40
2023-02-03T14:27:20.982Z,12.40
2023-02-03T14:30:09.150Z,12.30
2023-02-03T14:32:49.803Z,12.30
2023-02-03T14:35:29.882Z,12.30
2023-02-03T14:38:01.939Z,12.20
2023-02-03T14:40:53.140Z,12.20
2023-02-03T14:43:42.675Z,12.10
2023-02-03T14:46:20.646Z,12.10
2023-02-03T14:49:25.351Z,12.10
2023-02-03T14:52:03.812Z,12.10
2023-02-03T14:54:55.577Z,12.10
2023-02-03T14:57:44.122Z,12.10
2023-02-03T15:00:23.333Z,12.10
2023-02-03T15:03:11.951Z,12.10
2023-02-03T15:05:47.334Z,12.00
2023-02-03T15:08:40.100Z,12.00
2023-02-03T15:11:32.626Z,12.00
2023-02-03T15:14:20.419Z,11.90
2023-02-03T15:16:53.317Z,11.90
2023-02-03T15:19:24.073Z,11.80
2023-02-03T15:21:51.071Z,11.80
2023-02-03T15:24:22.851Z,11.70
2023-02-03T15:26:55.670Z,11.70
2023-02-03T15:29:33.994Z,11.60
2023-02-03T15:32:19.725Z,11.60
2023-02-03T15:34:50.968Z,11.50
2023-02-03T15:37:28.913Z,11.50
2023-02-03T15:40:19.238Z,11.50
2023-02-03T15:42:55.058Z,11.40
2023-02-03T15:45:45.841Z,11.40
2023-02-03T15:48:23.838Z,11.40
2023-02-03T15:50:57.844Z,11.40
2023-02-03T15:53:46.751Z,11.30
2023-02-03T15:56:41.112Z,11.30
2023-02-03T15:59:31.194Z,11.30
2023-02-03T16:02:00.653Z,11.30
2023-02-03T16:04:27.828Z,11.20
2023-02-03T16:06:56.689Z,11.20
2023-02-03T16:09:31.705Z,11.20
2023-02-03T16:12:07.608Z,11.20
2023-02-03T16:14:36.528Z,11.20
2023-02-03T16:17:06.002Z,11.10
2023-02-03T16:19:38.461Z,11.20
2023-02-03T16:22:26.024Z,11.10
2023-02-03T16:24:53.023Z,11.10
2023-02-03T16:27:25.972Z,11.10
2023-02-03T16:30:12.963Z,11.00
2023-02-03T16:32:59.160Z,11.00
2023-02-03T16:35:44.494Z,11.00
2023-02-03T16:38:33.887Z,11.00
2023-02-03T16:41:21.143Z,11.00
2023-02-03T16:44:06.771Z,10.90
2023-02-03T16:46:52.498Z,10.90
2023-02-03T16:49:37.926Z,10.90
2023-02-03T16:52:06.511Z,10.90
2023-02-03T16:54:33.473Z,10.80
2023-02-03T16:57:00.441Z,10.80
2023-02-03T16:59:27.389Z,10.80
2023-02-03T17:01:54.362Z,10.80
2023-02-03T17:04:21.340Z,10.80
2023-02-03T17:06:51.219Z,10.80
2023-02-03T17:09:23.587Z,10.80
2023-02-03T17:11:51.105Z,10.80
2023-02-03T17:14:18.078Z,10.70
2023-02-03T17:16:45.188Z,10.70
2023-02-03T17:19:12.957Z,10.70
2023-02-03T17:21:40.022Z,10.70
2023-02-03T17:24:07.745Z,10.70
2023-02-03T17:26:35.296Z,10.70
2023-02-03T17:29:03.563Z,10.70
2023-02-03T17:31:32.063Z,10.60
2023-02-03T17:33:59.262Z,10.60
2023-02-03T17:36:26.517Z,10.60
2023-02-03T17:55:23.859Z,10.30
2023-02-03T17:57:51.183Z,10.20
2023-02-03T18:00:18.401Z,10.20
2023-02-03T18:02:49.695Z,10.20
2023-02-03T18:05:18.470Z,10.20
2023-02-03T18:07:45.622Z,10.10
2023-02-03T18:10:12.760Z,10.10
2023-02-03T18:12:39.742Z,10.10
2023-02-03T18:15:07.167Z,10.00
2023-02-03T18:17:34.249Z,10.00
2023-02-03T18:20:02.464Z,10.00
2023-02-03T18:22:29.798Z,10.00
2023-02-03T18:24:56.803Z,9.90
2023-02-03T18:27:23.882Z,9.90
2023-02-03T18:29:50.870Z,9.90
2023-02-03T18:32:17.883Z,9.90
2023-02-03T18:34:44.845Z,9.90
2023-02-03T18:37:12.382Z,9.80
2023-02-03T18:39:39.330Z,9.80
2023-02-03T18:42:07.336Z,9.80
2023-02-03T18:44:34.813Z,9.80
2023-02-03T18:47:07.083Z,9.80
2023-02-03T18:49:38.226Z,9.80
2023-02-03T18:52:05.749Z,9.70
2023-02-03T18:54:32.897Z,9.70
2023-02-03T18:57:00.062Z,9.70
2023-02-03T18:59:27.119Z,9.70
2023-02-03T19:01:54.320Z,9.70
2023-02-03T19:04:21.515Z,9.70
2023-02-03T19:06:48.722Z,9.70
2023-02-03T19:09:18.001Z,9.70
2023-02-03T19:11:48.266Z,9.70
2023-02-03T19:14:16.485Z,9.60
2023-02-03T19:16:44.249Z,9.60
2023-02-03T19:19:14.189Z,9.60
2023-02-03T19:21:41.192Z,9.60
2023-02-03T19:24:08.272Z,9.60
2023-02-03T19:26:35.522Z,9.60
2023-02-03T19:29:02.449Z,9.60
2023-02-03T19:31:29.611Z,9.60
2023-02-03T19:34:00.036Z,9.60
2023-02-03T19:36:30.598Z,9.60
2023-02-03T19:38:57.615Z,9.60
2023-02-03T19:41:26.357Z,9.60
2023-02-03T19:43:53.937Z,9.60
2023-02-03T19:46:25.581Z,9.70
2023-02-03T19:48:52.595Z,9.70
2023-02-03T19:51:20.773Z,9.70
2023-02-03T19:53:47.709Z,9.70
2023-02-03T19:56:14.932Z,9.70
2023-02-03T19:58:41.979Z,9.70
2023-02-03T20:01:10.227Z,9.80
2023-02-03T20:03:37.319Z,9.80
2023-02-03T20:06:04.402Z,9.80
2023-02-03T20:08:31.440Z,9.80
2023-02-03T20:10:58.507Z,9.80
2023-02-03T20:13:25.542Z,9.80
2023-02-03T20:15:52.574Z,9.80
2023-02-03T20:18:19.988Z,9.80
2023-02-03T20:20:55.312Z,9.80
2023-02-03T20:23:23.780Z,9.80
2023-02-03T20:25:53.009Z,9.80
2023-02-03T20:28:24.546Z,9.80
2023-02-03T20:30:52.868Z,9.80
2023-02-03T20:33:20.219Z,9.80
2023-02-03T20:35:47.160Z,9.80
2023-02-03T20:38:16.050Z,9.80
2023-02-03T20:40:43.826Z,9.80
2023-02-03T20:43:29.154Z,9.80
2023-02-03T20:45:56.201Z,9.80
2023-02-03T20:48:25.575Z,9.80
2023-02-03T20:50:53.154Z,9.80
2023-02-03T20:53:23.188Z,9.80
2023-02-03T20:55:51.186Z,9.80
2023-02-03T20:58:21.758Z,9.80
2023-02-03T21:00:49.687Z,9.80
2023-02-03T21:03:36.600Z,9.80
2023-02-03T21:06:16.726Z,9.80
2023-02-03T21:08:45.283Z,9.80
2023-02-03T21:11:15.206Z,9.80
2023-02-03T21:13:45.329Z,9.80
2023-02-03T21:16:20.201Z,9.80
2023-02-03T21:18:55.366Z,9.80
2023-02-03T21:21:42.558Z,9.80
2023-02-03T21:24:18.661Z,9.80
2023-02-03T21:26:45.695Z,9.90
2023-02-03T21:29:26.845Z,9.90
2023-02-03T21:31:55.176Z,9.90
2023-02-03T21:34:32.447Z,9.90
2023-02-03T21:37:08.248Z,9.90
2023-02-03T21:39:35.487Z,9.90
2023-02-03T21:42:41.230Z,9.90
2023-02-03T21:45:17.741Z,9.90
2023-02-03T21:47:47.601Z,9.90
2023-02-03T21:50:29.654Z,9.90
2023-02-03T21:53:01.677Z,9.90
2023-02-03T21:55:28.992Z,9.90
2023-02-03T21:57:56.094Z,9.90
2023-02-03T22:00:48.240Z,9.90
2023-02-03T22:03:30.519Z,9.90
2023-02-03T22:06:09.729Z,9.90
2023-02-03T22:08:40.061Z,9.90
2023-02-03T22:11:07.499Z,9.90
2023-02-03T22:13:34.744Z,9.90
2023-02-03T22:16:04.732Z,9.90
2023-02-03T22:18:31.852Z,9.90
2023-02-03T22:20:58.831Z,9.90
2023-02-03T22:23:25.814Z,9.90
2023-02-03T22:25:52.809Z,9.90
2023-02-03T22:28:19.959Z,9.90
2023-02-03T22:30:48.060Z,9.90
2023-02-03T22:33:15.172Z,9.90
2023-02-03T22:35:42.232Z,9.90
2023-02-03T22:38:09.229Z,9.90
2023-02-03T22:40:36.286Z,9.90
2023-02-03T22:43:03.386Z,9.90
2023-02-03T22:45:30.401Z,9.90
2023-02-03T22:48:00.154Z,9.90
2023-02-03T22:50:35.843Z,9.90
2023-02-03T22:53:04.304Z,9.90
2023-02-03T22:55:31.709Z,9.90
2023-02-03T22:57:59.375Z,9.90
2023-02-03T23:00:26.992Z,9.90
2023-02-03T23:02:54.491Z,9.90
2023-02-03T23:05:22.196Z,9.90
2023-02-03T23:07:49.730Z,9.90
2023-02-03T23:10:22.950Z,9.90
2023-02-03T23:12:50.684Z,9.90
2023-02-03T23:15:18.321Z,9.90
2023-02-03T23:17:45.916Z,9.90
2023-02-03T23:20:19.657Z,9.90
2023-02-03T23:22:47.898Z,9.90
2023-02-03T23:25:15.090Z,9.90
2023-02-03T23:27:42.367Z,9.90
2023-02-03T23:30:10.210Z,10.00
2023-02-03T23:32:37.266Z,10.00
2023-02-03T23:35:23.709Z,9.90
2023-02-03T23:37:50.755Z,10.00
2023-02-03T23:40:18.016Z,10.00
2023-02-03T23:42:45.125Z,10.00
2023-02-03T23:45:12.741Z,10.00
2023-02-03T23:47:41.897Z,10.00
2023-02-03T23:50:11.833Z,10.00
2023-02-03T23:52:38.996Z,10.00
2023-02-03T23:55:15.918Z,9.90
2023-02-03T23:57:43.418Z,10.00
